createdAt,value
2022-10-23T00:00:16.304Z,0.00
2022-10-23T00:01:16.291Z,0.00
2022-10-23T00:02:16.303Z,0.00
2022-10-23T00:03:16.316Z,0.00
2022-10-23T00:04:16.380Z,0.00
2022-10-23T00:05:16.332Z,0.00
2022-10-23T00:06:16.375Z,0.00
2022-10-23T00:07:16.405Z,0.00
2022-10-23T00:08:16.372Z,0.00
2022-10-23T00:09:16.370Z,0.00
2022-10-23T00:10:16.383Z,0.00
2022-10-23T00:11:16.419Z,0.00
2022-10-23T00:12:16.454Z,0.00
2022-10-23T00:13:16.426Z,0.00
2022-10-23T00:14:16.464Z,0.00
2022-10-23T00:15:16.483Z,0.00
2022-10-23T00:16:16.514Z,0.00
2022-10-23T00:17:16.568Z,0.00
2022-10-23T00:18:16.534Z,0.00
2022-10-23T00:19:16.587Z,0.00
2022-10-23T00:20:16.592Z,0.00
2022-10-23T00:21:16.572Z,0.00
2022-10-23T00:22:16.603Z,0.00
2022-10-23T00:23:16.634Z,0.00
2022-10-23T00:24:16.660Z,0.00
2022-10-23T00:25:16.686Z,0.00
2022-10-23T00:26:16.661Z,0.00
2022-10-23T00:27:16.695Z,0.00
2022-10-23T00:28:16.705Z,0.00
2022-10-23T00:29:16.732Z,0.00
2022-10-23T00:30:16.784Z,0.00
2022-10-23T00:31:16.748Z,0.00
2022-10-23T00:32:16.762Z,0.00
2022-10-23T00:33:16.806Z,0.00
2022-10-23T00:34:16.797Z,0.00
2022-10-23T00:35:18.021Z,0.00
2022-10-23T00:36:16.823Z,0.00
2022-10-23T00:37:16.850Z,0.00
2022-10-23T00:38:16.871Z,0.00
2022-10-23T00:39:16.901Z,0.00
2022-10-23T00:40:16.915Z,0.00
2022-10-23T00:41:17.171Z,0.00
2022-10-23T00:42:16.948Z,0.00
2022-10-23T00:43:16.960Z,0.00
2022-10-23T00:44:16.963Z,0.00
2022-10-23T00:45:16.962Z,0.00
2022-10-23T00:46:17.001Z,0.00
2022-10-23T00:47:17.021Z,0.00
2022-10-23T00:48:17.039Z,0.00
2022-10-23T00:49:17.094Z,0.00
2022-10-23T00:50:17.104Z,0.00
2022-10-23T00:51:17.096Z,0.00
2022-10-23T00:52:17.101Z,0.00
2022-10-23T00:53:17.115Z,0.00
2022-10-23T00:54:23.829Z,0.00
2022-10-23T00:55:17.162Z,0.00
2022-10-23T00:56:17.192Z,0.00
2022-10-23T00:57:17.234Z,0.00
2022-10-23T00:58:17.170Z,0.00
2022-10-23T00:59:17.183Z,0.00
2022-10-23T01:00:17.207Z,0.00
2022-10-23T01:01:17.305Z,0.00
2022-10-23T01:02:17.389Z,0.00
2022-10-23T01:03:17.212Z,0.00
2022-10-23T01:04:17.202Z,0.00
2022-10-23T01:05:17.233Z,0.00
2022-10-23T01:06:17.240Z,0.00
2022-10-23T01:07:17.279Z,0.00
2022-10-23T01:08:17.254Z,0.00
2022-10-23T01:09:17.283Z,0.00
2022-10-23T01:10:17.309Z,0.00
2022-10-23T01:11:17.334Z,0.00
2022-10-23T01:12:17.367Z,0.00
2022-10-23T01:13:17.385Z,0.00
2022-10-23T01:14:17.395Z,0.00
2022-10-23T01:15:17.441Z,0.00
2022-10-23T01:16:17.433Z,0.00
2022-10-23T01:17:17.479Z,0.00
2022-10-23T01:18:17.449Z,0.00
2022-10-23T01:19:17.464Z,0.00
2022-10-23T01:20:17.492Z,0.00
2022-10-23T01:21:17.571Z,0.00
2022-10-23T01:22:17.587Z,0.00
2022-10-23T01:23:17.563Z,0.00
2022-10-23T01:24:17.581Z,0.00
2022-10-23T01:25:17.594Z,0.00
2022-10-23T01:26:17.635Z,0.00
2022-10-23T01:27:17.659Z,0.00
2022-10-23T01:28:17.637Z,0.00
2022-10-23T01:29:17.678Z,0.00
2022-10-23T01:30:17.686Z,0.00
2022-10-23T01:31:17.716Z,0.00
2022-10-23T01:32:17.696Z,0.00
2022-10-23T01:33:17.725Z,0.00
2022-10-23T01:34:17.727Z,0.00
2022-10-23T01:35:17.761Z,0.00
2022-10-23T01:36:17.826Z,0.00
2022-10-23T01:37:17.821Z,0.00
2022-10-23T01:38:17.826Z,0.00
2022-10-23T01:39:17.803Z,0.00
2022-10-23T01:40:17.844Z,0.00
2022-10-23T01:41:17.893Z,0.00
2022-10-23T01:42:17.844Z,0.00
2022-10-23T01:43:17.887Z,0.00
2022-10-23T01:44:17.908Z,0.00
2022-10-23T01:45:17.937Z,0.00
2022-10-23T01:46:17.964Z,0.00
2022-10-23T01:47:17.987Z,0.00
2022-10-23T01:48:17.958Z,0.00
2022-10-23T01:49:17.977Z,0.00
2022-10-23T01:50:18.013Z,0.00
2022-10-23T01:51:18.038Z,0.00
2022-10-23T01:52:18.067Z,0.00
2022-10-23T01:53:18.107Z,0.00
2022-10-23T01:54:18.104Z,0.00
2022-10-23T01:55:18.103Z,0.00
2022-10-23T01:56:18.325Z,0.00
2022-10-23T01:57:18.107Z,0.00
2022-10-23T01:58:18.087Z,0.00
2022-10-23T01:59:18.099Z,0.00
2022-10-23T02:00:18.111Z,0.00
2022-10-23T02:01:18.231Z,0.00
2022-10-23T02:02:18.198Z,0.00
2022-10-23T02:03:18.150Z,0.00
2022-10-23T02:04:18.173Z,0.00
2022-10-23T02:05:18.159Z,0.00
2022-10-23T02:06:18.185Z,0.00
2022-10-23T02:07:18.199Z,0.00
2022-10-23T02:08:18.245Z,0.00
2022-10-23T02:09:18.223Z,0.00
2022-10-23T02:10:18.216Z,0.00
2022-10-23T02:11:18.246Z,0.00
2022-10-23T02:12:18.287Z,0.00
2022-10-23T02:13:18.288Z,0.00
2022-10-23T02:14:18.261Z,0.00
2022-10-23T02:15:18.281Z,0.00
2022-10-23T02:16:18.323Z,0.00
2022-10-23T02:17:18.323Z,0.00
2022-10-23T02:18:18.352Z,0.00
2022-10-23T02:19:18.388Z,0.00
2022-10-23T02:20:18.375Z,0.00
2022-10-23T02:21:18.396Z,0.00
2022-10-23T02:22:18.444Z,0.00
2022-10-23T02:23:18.449Z,0.00
2022-10-23T02:24:18.468Z,0.00
2022-10-23T02:25:18.510Z,0.00
2022-10-23T02:26:18.513Z,0.00
2022-10-23T02:27:18.530Z,0.00
2022-10-23T02:28:18.567Z,0.00
2022-10-23T02:29:18.588Z,0.00
2022-10-23T02:30:18.573Z,0.00
2022-10-23T02:31:18.605Z,0.00
2022-10-23T02:32:18.631Z,0.00
2022-10-23T02:33:18.660Z,0.00
2022-10-23T02:34:18.684Z,0.00
2022-10-23T02:35:18.668Z,0.00
2022-10-23T02:36:18.700Z,0.00
2022-10-23T02:37:18.765Z,0.00
2022-10-23T02:38:18.698Z,0.00
2022-10-23T02:39:18.733Z,0.00
2022-10-23T02:40:18.706Z,0.00
2022-10-23T02:41:18.755Z,0.00
2022-10-23T02:42:18.772Z,0.00
2022-10-23T02:43:18.792Z,0.00
2022-10-23T02:44:18.831Z,0.00
2022-10-23T02:45:18.831Z,0.00
2022-10-23T02:46:18.828Z,0.00
2022-10-23T02:47:18.844Z,0.00
2022-10-23T02:48:18.877Z,0.00
2022-10-23T02:49:18.867Z,0.00
2022-10-23T02:50:18.896Z,0.00
2022-10-23T02:51:18.906Z,0.00
2022-10-23T02:52:18.928Z,0.00
2022-10-23T02:53:18.958Z,0.00
2022-10-23T02:54:18.936Z,0.00
2022-10-23T02:55:18.955Z,0.00
2022-10-23T02:56:18.957Z,0.00
2022-10-23T02:57:19.011Z,0.00
2022-10-23T02:58:19.016Z,0.00
2022-10-23T02:59:19.013Z,0.00
2022-10-23T03:00:19.041Z,0.00
2022-10-23T03:01:19.199Z,0.00
2022-10-23T03:02:19.286Z,0.00
2022-10-23T03:03:19.068Z,0.00
2022-10-23T03:04:19.090Z,0.00
2022-10-23T03:05:19.104Z,0.00
2022-10-23T03:06:19.106Z,0.00
2022-10-23T03:07:19.103Z,0.00
2022-10-23T03:08:19.140Z,0.00
2022-10-23T03:09:19.152Z,0.00
2022-10-23T03:10:19.267Z,0.00
2022-10-23T03:11:19.177Z,0.00
2022-10-23T03:12:19.191Z,0.00
2022-10-23T03:13:19.258Z,0.00
2022-10-23T03:14:19.221Z,0.00
2022-10-23T03:15:19.280Z,0.00
2022-10-23T03:16:19.277Z,0.00
2022-10-23T03:17:19.299Z,0.00
2022-10-23T03:18:19.345Z,0.00
2022-10-23T03:19:19.318Z,0.00
2022-10-23T03:20:19.339Z,0.00
2022-10-23T03:21:19.365Z,0.00
2022-10-23T03:22:19.393Z,0.00
2022-10-23T03:23:19.419Z,0.00
2022-10-23T03:24:19.437Z,0.00
2022-10-23T03:25:19.464Z,0.00
2022-10-23T03:26:19.468Z,0.00
2022-10-23T03:27:19.555Z,0.00
2022-10-23T03:28:19.546Z,0.00
2022-10-23T03:29:19.549Z,0.00
2022-10-23T03:30:19.541Z,0.00
2022-10-23T03:31:19.573Z,0.00
2022-10-23T03:32:19.595Z,0.00
2022-10-23T03:33:19.611Z,0.00
2022-10-23T03:34:19.614Z,0.00
2022-10-23T03:35:19.649Z,0.00
2022-10-23T03:36:19.659Z,0.00
2022-10-23T03:37:19.668Z,0.00
2022-10-23T03:38:19.698Z,0.00
2022-10-23T03:39:19.694Z,0.00
2022-10-23T03:40:19.726Z,0.00
2022-10-23T03:41:19.742Z,0.00
2022-10-23T03:42:19.775Z,0.00
2022-10-23T03:43:19.804Z,0.00
2022-10-23T03:44:19.814Z,0.00
2022-10-23T03:45:19.844Z,0.00
2022-10-23T03:46:19.844Z,0.00
2022-10-23T03:47:19.866Z,0.00
2022-10-23T03:48:19.908Z,0.00
2022-10-23T03:49:19.904Z,0.00
2022-10-23T03:50:19.925Z,0.00
2022-10-23T03:51:19.958Z,0.00
2022-10-23T03:52:20.070Z,0.00
2022-10-23T03:53:19.980Z,0.00
2022-10-23T03:54:19.962Z,0.00
2022-10-23T03:55:19.990Z,0.00
2022-10-23T03:56:20.011Z,0.00
2022-10-23T03:57:20.040Z,0.00
2022-10-23T03:58:20.075Z,0.00
2022-10-23T03:59:20.061Z,0.00
2022-10-23T04:00:20.106Z,0.00
2022-10-23T04:01:20.252Z,0.00
2022-10-23T04:02:20.191Z,0.00
2022-10-23T04:03:20.193Z,0.00
2022-10-23T04:04:20.224Z,0.00
2022-10-23T04:05:20.176Z,0.00
2022-10-23T04:06:20.201Z,0.00
2022-10-23T04:07:20.200Z,0.00
2022-10-23T04:08:20.438Z,0.00
2022-10-23T04:09:20.251Z,0.00
2022-10-23T04:10:20.251Z,0.00
2022-10-23T04:11:20.270Z,0.00
2022-10-23T04:12:20.276Z,0.00
2022-10-23T04:13:20.313Z,0.00
2022-10-23T04:14:20.319Z,0.00
2022-10-23T04:15:20.321Z,0.00
2022-10-23T04:16:20.302Z,0.00
2022-10-23T04:17:20.394Z,0.00
2022-10-23T04:18:20.366Z,0.00
2022-10-23T04:19:20.391Z,0.00
2022-10-23T04:20:20.428Z,0.00
2022-10-23T04:21:20.433Z,0.00
2022-10-23T04:22:23.541Z,0.00
2022-10-23T04:23:20.477Z,0.00
2022-10-23T04:24:20.474Z,0.00
2022-10-23T04:25:20.516Z,0.00
2022-10-23T04:26:20.532Z,0.00
2022-10-23T04:27:20.502Z,0.00
2022-10-23T04:28:20.498Z,0.00
2022-10-23T04:29:20.513Z,0.00
2022-10-23T04:30:20.520Z,0.00
2022-10-23T04:31:20.572Z,0.00
2022-10-23T04:32:20.534Z,0.00
2022-10-23T04:33:20.576Z,0.00
2022-10-23T04:34:20.589Z,0.00
2022-10-23T04:35:20.594Z,0.00
2022-10-23T04:36:20.639Z,0.00
2022-10-23T04:37:20.650Z,0.00
2022-10-23T04:38:20.672Z,0.00
2022-10-23T04:39:20.700Z,0.00
2022-10-23T04:40:20.728Z,0.00
2022-10-23T04:41:20.746Z,0.00
2022-10-23T04:42:20.880Z,0.00
2022-10-23T04:43:20.764Z,0.00
2022-10-23T04:44:20.803Z,0.00
2022-10-23T04:45:20.818Z,0.00
2022-10-23T04:46:20.867Z,0.00
2022-10-23T04:47:20.825Z,0.00
2022-10-23T04:48:23.407Z,0.00
2022-10-23T04:49:20.885Z,0.00
2022-10-23T04:50:20.882Z,0.00
2022-10-23T04:51:20.917Z,0.00
2022-10-23T04:52:20.883Z,0.00
2022-10-23T04:53:20.889Z,0.00
2022-10-23T04:54:20.904Z,0.00
2022-10-23T04:55:20.945Z,0.00
2022-10-23T04:56:20.947Z,0.00
2022-10-23T04:57:20.980Z,0.00
2022-10-23T04:58:20.960Z,0.00
2022-10-23T04:59:20.956Z,0.00
2022-10-23T05:00:20.982Z,0.00
2022-10-23T05:01:21.131Z,0.00
2022-10-23T05:02:21.022Z,0.00
2022-10-23T05:03:20.991Z,0.00
2022-10-23T05:04:20.995Z,0.00
2022-10-23T05:05:21.049Z,0.00
2022-10-23T05:06:21.056Z,0.00
2022-10-23T05:08:21.101Z,0.00
2022-10-23T05:09:21.067Z,0.00
2022-10-23T05:10:21.069Z,0.00
2022-10-23T05:11:21.065Z,0.00
2022-10-23T05:12:21.094Z,0.00
2022-10-23T05:13:21.110Z,0.00
2022-10-23T05:14:22.806Z,0.00
2022-10-23T05:15:21.129Z,0.00
2022-10-23T05:16:21.157Z,0.00
2022-10-23T05:17:21.195Z,0.00
2022-10-23T05:18:21.172Z,0.00
2022-10-23T05:19:24.154Z,0.00
2022-10-23T05:20:21.226Z,0.00
2022-10-23T05:21:21.294Z,0.00
2022-10-23T05:22:21.238Z,0.00
2022-10-23T05:23:21.260Z,0.00
2022-10-23T05:24:21.282Z,0.00
2022-10-23T05:25:21.311Z,0.00
2022-10-23T05:26:21.328Z,0.00
2022-10-23T05:27:21.370Z,0.00
2022-10-23T05:28:21.352Z,0.00
2022-10-23T05:29:21.376Z,0.00
2022-10-23T05:30:21.406Z,1.00
2022-10-23T05:31:21.435Z,1.00
2022-10-23T05:33:21.411Z,1.00
2022-10-23T05:34:21.419Z,1.00
2022-10-23T05:35:21.423Z,1.00
2022-10-23T05:36:21.420Z,1.00
2022-10-23T05:37:21.471Z,1.00
2022-10-23T05:38:21.471Z,1.00
2022-10-23T05:39:21.449Z,2.00
2022-10-23T05:40:21.466Z,2.00
2022-10-23T05:41:21.495Z,2.00
2022-10-23T05:42:21.507Z,2.00
2022-10-23T05:43:21.546Z,3.00
2022-10-23T05:44:21.561Z,3.00
2022-10-23T05:45:21.576Z,4.00
2022-10-23T05:46:21.581Z,4.00
2022-10-23T05:47:21.595Z,5.00
2022-10-23T05:48:33.920Z,5.00
2022-10-23T05:49:21.646Z,5.00
2022-10-23T05:50:21.646Z,6.00
2022-10-23T05:51:21.659Z,7.00
2022-10-23T05:52:21.684Z,8.00
2022-10-23T05:53:21.696Z,9.00
2022-10-23T05:54:21.705Z,10.00
2022-10-23T05:55:21.737Z,11.00
2022-10-23T05:56:21.719Z,13.00
2022-10-23T05:57:21.776Z,14.00
2022-10-23T05:58:21.771Z,15.00
2022-10-23T05:59:23.091Z,17.00
2022-10-23T06:00:21.809Z,17.00
2022-10-23T06:01:21.918Z,19.00
2022-10-23T06:02:21.871Z,21.00
2022-10-23T06:03:21.847Z,22.00
2022-10-23T06:04:21.883Z,25.00
2022-10-23T06:05:21.866Z,25.00
2022-10-23T06:06:21.911Z,27.00
2022-10-23T06:07:21.883Z,28.00
2022-10-23T06:08:21.924Z,30.00
2022-10-23T06:09:21.973Z,32.00
2022-10-23T06:10:21.929Z,33.00
2022-10-23T06:11:21.968Z,34.00
2022-10-23T06:12:21.979Z,35.00
2022-10-23T06:13:21.993Z,37.00
2022-10-23T06:14:22.030Z,39.00
2022-10-23T06:15:22.001Z,41.00
2022-10-23T06:16:22.014Z,43.00
2022-10-23T06:17:22.047Z,46.00
2022-10-23T06:18:22.062Z,51.00
2022-10-23T06:19:22.093Z,56.00
2022-10-23T06:20:25.339Z,59.00
2022-10-23T06:21:22.099Z,61.00
2022-10-23T06:22:22.114Z,65.00
2022-10-23T06:23:22.132Z,70.00
2022-10-23T06:24:22.137Z,75.00
2022-10-23T06:25:22.186Z,81.00
2022-10-23T06:26:22.137Z,82.00
2022-10-23T06:27:22.166Z,85.00
2022-10-23T06:28:22.186Z,87.00
2022-10-23T06:29:22.217Z,89.00
2022-10-23T06:30:22.249Z,92.00
2022-10-23T06:31:22.221Z,94.00
2022-10-23T06:32:22.218Z,98.00
2022-10-23T06:33:22.251Z,100.00
2022-10-23T06:34:22.240Z,101.00
2022-10-23T06:35:22.265Z,104.00
2022-10-23T06:36:22.289Z,106.00
2022-10-23T06:37:22.299Z,110.00
2022-10-23T06:38:22.297Z,112.00
2022-10-23T06:39:22.309Z,115.00
2022-10-23T06:40:22.361Z,119.00
2022-10-23T06:41:22.367Z,123.00
2022-10-23T06:42:22.370Z,127.00
2022-10-23T06:43:22.392Z,132.00
2022-10-23T06:44:22.431Z,138.00
2022-10-23T06:45:22.425Z,143.00
2022-10-23T06:46:22.443Z,146.00
2022-10-23T06:47:22.442Z,150.00
2022-10-23T06:48:22.463Z,153.00
2022-10-23T06:49:22.501Z,156.00
2022-10-23T06:50:22.479Z,160.00
2022-10-23T06:51:22.503Z,162.00
2022-10-23T06:52:45.446Z,165.00
2022-10-23T06:53:22.550Z,165.00
2022-10-23T06:54:22.604Z,167.00
2022-10-23T06:55:22.618Z,169.00
2022-10-23T06:56:22.626Z,169.00
2022-10-23T06:57:22.683Z,170.00
2022-10-23T06:58:22.686Z,171.00
2022-10-23T06:59:22.707Z,174.00
2022-10-23T07:00:22.721Z,177.00
2022-10-23T07:01:22.968Z,180.00
2022-10-23T07:02:22.786Z,181.00
2022-10-23T07:03:22.833Z,183.00
2022-10-23T07:04:22.802Z,186.00
2022-10-23T07:05:22.799Z,187.00
2022-10-23T07:06:22.829Z,189.00
2022-10-23T07:07:22.840Z,194.00
2022-10-23T07:08:22.859Z,198.00
2022-10-23T07:09:22.896Z,202.00
2022-10-23T07:10:22.882Z,209.00
2022-10-23T07:11:22.859Z,221.00
2022-10-23T07:12:22.893Z,237.00
2022-10-23T07:13:22.917Z,244.00
2022-10-23T07:14:22.914Z,248.00
2022-10-23T07:15:22.978Z,258.00
2022-10-23T07:16:22.957Z,262.00
2022-10-23T07:17:22.995Z,265.00
2022-10-23T07:18:23.023Z,263.00
2022-10-23T07:19:23.011Z,264.00
2022-10-23T07:20:23.092Z,266.00
2022-10-23T07:21:23.050Z,271.00
2022-10-23T07:22:23.092Z,276.00
2022-10-23T07:23:23.081Z,283.00
2022-10-23T07:24:23.113Z,292.00
2022-10-23T07:25:23.151Z,299.00
2022-10-23T07:26:23.158Z,303.00
2022-10-23T07:27:23.179Z,313.00
2022-10-23T07:28:23.207Z,318.00
2022-10-23T07:29:23.234Z,319.00
2022-10-23T07:30:23.189Z,323.00
2022-10-23T07:31:25.775Z,320.00
2022-10-23T07:32:23.204Z,324.00
2022-10-23T07:33:23.230Z,332.00
2022-10-23T07:34:23.264Z,334.00
2022-10-23T07:35:23.286Z,334.00
2022-10-23T07:36:23.309Z,336.00
2022-10-23T07:37:23.340Z,336.00
2022-10-23T07:38:23.362Z,341.00
2022-10-23T07:39:23.382Z,339.00
2022-10-23T07:40:23.397Z,344.00
2022-10-23T07:41:23.405Z,345.00
2022-10-23T07:42:23.432Z,347.00
2022-10-23T07:43:23.519Z,349.00
2022-10-23T07:44:25.720Z,351.00
2022-10-23T07:45:23.508Z,348.00
2022-10-23T07:46:23.469Z,348.00
2022-10-23T07:47:23.492Z,350.00
2022-10-23T07:48:23.529Z,351.00
2022-10-23T07:49:23.533Z,350.00
2022-10-23T07:50:23.556Z,346.00
2022-10-23T07:51:23.566Z,339.00
2022-10-23T07:52:23.595Z,350.00
2022-10-23T07:53:23.605Z,357.00
2022-10-23T07:54:23.634Z,362.00
2022-10-23T07:55:23.654Z,371.00
2022-10-23T07:56:23.669Z,380.00
2022-10-23T07:57:23.661Z,381.00
2022-10-23T07:58:23.665Z,381.00
2022-10-23T07:59:23.708Z,386.00
2022-10-23T08:01:23.836Z,385.00
2022-10-23T08:02:23.803Z,391.00
2022-10-23T08:03:23.738Z,393.00
2022-10-23T08:04:23.764Z,407.00
2022-10-23T08:05:23.774Z,403.00
2022-10-23T08:06:23.794Z,393.00
2022-10-23T08:07:23.811Z,391.00
2022-10-23T08:08:23.825Z,398.00
2022-10-23T08:09:23.838Z,407.00
2022-10-23T08:10:23.942Z,403.00
2022-10-23T08:11:23.865Z,398.00
2022-10-23T08:12:23.870Z,402.00
2022-10-23T08:13:23.888Z,402.00
2022-10-23T08:14:23.916Z,410.00
2022-10-23T08:15:23.926Z,405.00
2022-10-23T08:16:23.930Z,398.00
2022-10-23T08:17:26.315Z,408.00
2022-10-23T08:18:23.971Z,413.00
2022-10-23T08:19:24.011Z,414.00
2022-10-23T08:20:23.991Z,407.00
2022-10-23T08:21:24.017Z,420.00
2022-10-23T08:22:24.049Z,427.00
2022-10-23T08:23:24.076Z,421.00
2022-10-23T08:24:24.113Z,409.00
2022-10-23T08:25:25.195Z,414.00
2022-10-23T08:26:24.069Z,422.00
2022-10-23T08:27:24.085Z,424.00
2022-10-23T08:28:24.120Z,429.00
2022-10-23T08:29:24.136Z,428.00
2022-10-23T08:30:24.167Z,428.00
2022-10-23T08:31:24.181Z,426.00
2022-10-23T08:32:24.196Z,423.00
2022-10-23T08:33:24.252Z,423.00
2022-10-23T08:34:24.255Z,432.00
2022-10-23T08:35:24.250Z,438.00
2022-10-23T08:36:24.243Z,414.00
2022-10-23T08:37:24.248Z,405.00
2022-10-23T08:38:24.245Z,406.00
2022-10-23T08:39:24.287Z,412.00
2022-10-23T08:40:24.302Z,429.00
2022-10-23T08:41:24.344Z,447.00
2022-10-23T08:42:24.499Z,468.00
2022-10-23T08:43:24.318Z,489.00
2022-10-23T08:44:24.321Z,507.00
2022-10-23T08:45:24.319Z,522.00
2022-10-23T08:46:24.369Z,530.00
2022-10-23T08:47:24.340Z,540.00
2022-10-23T08:48:24.350Z,546.00
2022-10-23T08:49:24.413Z,539.00
2022-10-23T08:50:24.467Z,535.00
2022-10-23T08:51:24.398Z,538.00
2022-10-23T08:52:24.472Z,541.00
2022-10-23T08:53:24.432Z,545.00
2022-10-23T08:54:24.455Z,554.00
2022-10-23T08:55:24.482Z,552.00
2022-10-23T08:56:24.473Z,552.00
2022-10-23T08:57:24.512Z,566.00
2022-10-23T08:58:24.526Z,583.00
2022-10-23T08:59:24.550Z,602.00
2022-10-23T09:00:24.576Z,620.00
2022-10-23T09:01:24.816Z,640.00
2022-10-23T09:02:24.742Z,654.00
2022-10-23T09:03:24.637Z,654.00
2022-10-23T09:04:24.673Z,651.00
2022-10-23T09:05:24.721Z,654.00
2022-10-23T09:06:24.713Z,654.00
2022-10-23T09:07:24.788Z,653.00
2022-10-23T09:08:24.768Z,677.00
2022-10-23T09:09:24.793Z,700.00
2022-10-23T09:10:24.783Z,712.00
2022-10-23T09:11:24.802Z,737.00
2022-10-23T09:12:24.832Z,742.00
2022-10-23T09:13:24.842Z,757.00
2022-10-23T09:14:24.865Z,764.00
2022-10-23T09:15:24.868Z,787.00
2022-10-23T09:16:24.871Z,794.00
2022-10-23T09:17:24.896Z,772.00
2022-10-23T09:18:24.887Z,769.00
2022-10-23T09:19:24.899Z,776.00
2022-10-23T09:20:24.945Z,768.00
2022-10-23T09:21:24.950Z,833.00
2022-10-23T09:22:24.940Z,751.00
2022-10-23T09:23:24.957Z,771.00
2022-10-23T09:24:24.965Z,794.00
2022-10-23T09:25:25.002Z,823.00
2022-10-23T09:26:25.007Z,800.00
2022-10-23T09:27:25.033Z,786.00
2022-10-23T09:28:25.029Z,795.00
2022-10-23T09:29:25.061Z,755.00
2022-10-23T09:30:25.080Z,775.00
2022-10-23T09:31:25.097Z,731.00
2022-10-23T09:32:25.133Z,688.00
2022-10-23T09:33:25.121Z,674.00
2022-10-23T09:34:25.102Z,662.00
2022-10-23T09:35:25.121Z,680.00
2022-10-23T09:36:25.167Z,643.00
2022-10-23T09:37:25.241Z,640.00
2022-10-23T09:38:25.192Z,655.00
2022-10-23T09:39:25.218Z,675.00
2022-10-23T09:40:25.241Z,674.00
2022-10-23T09:41:25.295Z,656.00
2022-10-23T09:42:25.268Z,662.00
2022-10-23T09:43:25.291Z,681.00
2022-10-23T09:44:25.331Z,685.00
2022-10-23T09:45:25.313Z,692.00
2022-10-23T09:46:25.371Z,677.00
2022-10-23T09:47:25.370Z,689.00
2022-10-23T09:48:25.384Z,688.00
2022-10-23T09:49:25.405Z,686.00
2022-10-23T09:50:25.424Z,688.00
2022-10-23T09:51:25.451Z,670.00
2022-10-23T09:52:25.460Z,711.00
2022-10-23T09:53:25.581Z,690.00
2022-10-23T09:54:25.487Z,677.00
2022-10-23T09:55:25.559Z,699.00
2022-10-23T09:56:25.529Z,682.00
2022-10-23T09:57:25.550Z,702.00
2022-10-23T09:58:25.550Z,720.00
2022-10-23T09:59:25.566Z,746.00
2022-10-23T10:00:25.584Z,750.00
2022-10-23T10:01:25.752Z,747.00
2022-10-23T10:02:25.621Z,751.00
2022-10-23T10:03:25.624Z,769.00
2022-10-23T10:04:25.664Z,774.00
2022-10-23T10:05:25.656Z,753.00
2022-10-23T10:06:25.645Z,745.00
2022-10-23T10:07:25.663Z,752.00
2022-10-23T10:08:25.688Z,732.00
2022-10-23T10:09:25.714Z,749.00
2022-10-23T10:10:25.667Z,758.00
2022-10-23T10:11:25.679Z,730.00
2022-10-23T10:12:25.718Z,719.00
2022-10-23T10:13:25.694Z,726.00
2022-10-23T10:14:25.682Z,758.00
2022-10-23T10:15:25.704Z,743.00
2022-10-23T10:16:25.800Z,761.00
2022-10-23T10:17:25.757Z,829.00
2022-10-23T10:18:25.780Z,876.00
2022-10-23T10:19:25.750Z,870.00
2022-10-23T10:20:25.768Z,896.00
2022-10-23T10:21:25.784Z,949.00
2022-10-23T10:22:25.814Z,972.00
2022-10-23T10:23:25.844Z,975.00
2022-10-23T10:24:25.852Z,939.00
2022-10-23T10:25:25.882Z,908.00
2022-10-23T10:26:25.930Z,875.00
2022-10-23T10:27:25.892Z,860.00
2022-10-23T10:28:25.893Z,894.00
2022-10-23T10:29:25.914Z,834.00
2022-10-23T10:30:25.947Z,828.00
2022-10-23T10:31:25.955Z,854.00
2022-10-23T10:32:25.979Z,828.00
2022-10-23T10:33:26.005Z,806.00
2022-10-23T10:34:26.039Z,779.00
2022-10-23T10:35:26.036Z,715.00
2022-10-23T10:37:26.060Z,707.00
2022-10-23T10:38:26.092Z,698.00
2022-10-23T10:39:26.078Z,715.00
2022-10-23T10:40:26.075Z,743.00
2022-10-23T10:41:26.123Z,777.00
2022-10-23T10:42:26.127Z,779.00
2022-10-23T10:43:26.174Z,853.00
2022-10-23T10:44:26.135Z,846.00
2022-10-23T10:45:26.153Z,880.00
2022-10-23T10:46:26.189Z,886.00
2022-10-23T10:47:26.223Z,883.00
2022-10-23T10:48:26.210Z,875.00
2022-10-23T10:49:26.228Z,869.00
2022-10-23T10:50:26.261Z,837.00
2022-10-23T10:51:26.270Z,809.00
2022-10-23T10:52:26.296Z,813.00
2022-10-23T10:53:26.331Z,796.00
2022-10-23T10:54:26.314Z,810.00
2022-10-23T10:55:26.354Z,823.00
2022-10-23T10:56:26.383Z,798.00
2022-10-23T10:57:26.427Z,765.00
2022-10-23T10:58:26.436Z,784.00
2022-10-23T10:59:26.442Z,822.00
2022-10-23T11:00:26.437Z,837.00
2022-10-23T11:01:26.746Z,836.00
2022-10-23T11:02:26.552Z,833.00
2022-10-23T11:03:26.507Z,794.00
2022-10-23T11:04:26.488Z,811.00
2022-10-23T11:05:26.508Z,787.00
2022-10-23T11:06:26.558Z,792.00
2022-10-23T11:07:26.565Z,785.00
2022-10-23T11:08:26.578Z,791.00
2022-10-23T11:09:26.604Z,764.00
2022-10-23T11:10:26.629Z,766.00
2022-10-23T11:11:26.634Z,697.00
2022-10-23T11:12:26.657Z,680.00
2022-10-23T11:13:26.708Z,656.00
2022-10-23T11:14:26.678Z,662.00
2022-10-23T11:15:26.652Z,627.00
2022-10-23T11:16:26.664Z,604.00
2022-10-23T11:17:26.673Z,592.00
2022-10-23T11:18:26.683Z,648.00
2022-10-23T11:19:26.711Z,647.00
2022-10-23T11:20:26.762Z,571.00
2022-10-23T11:21:26.737Z,617.00
2022-10-23T11:22:26.714Z,625.00
2022-10-23T11:23:26.751Z,634.00
2022-10-23T11:24:26.772Z,556.00
2022-10-23T11:25:26.804Z,529.00
2022-10-23T11:26:26.830Z,494.00
2022-10-23T11:27:26.846Z,456.00
2022-10-23T11:28:26.846Z,426.00
2022-10-23T11:29:26.865Z,408.00
2022-10-23T11:30:26.869Z,385.00
2022-10-23T11:31:26.869Z,399.00
2022-10-23T11:32:26.923Z,424.00
2022-10-23T11:33:26.895Z,468.00
2022-10-23T11:34:26.951Z,510.00
2022-10-23T11:35:26.942Z,549.00
2022-10-23T11:36:26.978Z,582.00
2022-10-23T11:37:26.972Z,583.00
2022-10-23T11:38:26.972Z,584.00
2022-10-23T11:39:27.016Z,585.00
2022-10-23T11:40:26.981Z,592.00
2022-10-23T11:41:27.344Z,609.00
2022-10-23T11:42:27.013Z,642.00
2022-10-23T11:43:27.034Z,660.00
2022-10-23T11:44:27.072Z,672.00
2022-10-23T11:45:27.077Z,658.00
2022-10-23T11:46:27.069Z,652.00
2022-10-23T11:47:27.104Z,640.00
2022-10-23T11:48:27.107Z,632.00
2022-10-23T11:49:27.104Z,624.00
2022-10-23T11:50:27.861Z,607.00
2022-10-23T11:51:27.132Z,587.00
2022-10-23T11:52:27.142Z,566.00
2022-10-23T11:53:27.177Z,553.00
2022-10-23T11:54:27.256Z,541.00
2022-10-23T11:55:27.163Z,538.00
2022-10-23T11:56:27.177Z,537.00
2022-10-23T11:57:27.205Z,539.00
2022-10-23T11:58:27.181Z,551.00
2022-10-23T11:59:27.181Z,561.00
2022-10-23T12:00:27.199Z,575.00
2022-10-23T12:01:27.300Z,602.00
2022-10-23T12:02:27.266Z,637.00
2022-10-23T12:03:27.238Z,678.00
2022-10-23T12:04:27.268Z,714.00
2022-10-23T12:05:27.332Z,746.00
2022-10-23T12:06:27.293Z,759.00
2022-10-23T12:07:27.299Z,784.00
2022-10-23T12:08:27.320Z,816.00
2022-10-23T12:09:27.357Z,809.00
2022-10-23T12:10:27.353Z,861.00
2022-10-23T12:11:27.770Z,869.00
2022-10-23T12:12:27.366Z,857.00
2022-10-23T12:13:27.615Z,851.00
2022-10-23T12:14:27.395Z,921.00
2022-10-23T12:15:27.417Z,959.00
2022-10-23T12:16:27.453Z,845.00
2022-10-23T12:17:27.493Z,907.00
2022-10-23T12:18:27.507Z,865.00
2022-10-23T12:19:27.494Z,762.00
2022-10-23T12:20:27.529Z,765.00
2022-10-23T12:21:27.508Z,757.00
2022-10-23T12:22:27.567Z,629.00
2022-10-23T12:23:27.528Z,550.00
2022-10-23T12:24:27.548Z,542.00
2022-10-23T12:25:27.576Z,546.00
2022-10-23T12:26:27.598Z,566.00
2022-10-23T12:27:27.596Z,589.00
2022-10-23T12:28:27.641Z,599.00
2022-10-23T12:29:27.651Z,613.00
2022-10-23T12:30:27.665Z,573.00
2022-10-23T12:31:27.695Z,535.00
2022-10-23T12:32:27.714Z,511.00
2022-10-23T12:33:27.758Z,488.00
2022-10-23T12:34:27.770Z,471.00
2022-10-23T12:35:27.785Z,465.00
2022-10-23T12:36:27.846Z,460.00
2022-10-23T12:37:27.826Z,458.00
2022-10-23T12:38:31.318Z,470.00
2022-10-23T12:39:27.852Z,488.00
2022-10-23T12:40:27.881Z,501.00
2022-10-23T12:41:27.903Z,513.00
2022-10-23T12:42:27.873Z,535.00
2022-10-23T12:43:27.900Z,553.00
2022-10-23T12:44:27.908Z,568.00
2022-10-23T12:45:27.907Z,581.00
2022-10-23T12:46:27.934Z,583.00
2022-10-23T12:47:27.977Z,579.00
2022-10-23T12:48:27.904Z,562.00
2022-10-23T12:49:27.970Z,542.00
2022-10-23T12:50:27.923Z,529.00
2022-10-23T12:51:27.952Z,519.00
2022-10-23T12:52:27.930Z,513.00
2022-10-23T12:53:27.929Z,503.00
2022-10-23T12:54:27.980Z,497.00
2022-10-23T12:55:29.753Z,494.00